createdAt,value
2022-10-21T00:01:04.070Z,93.28
2022-10-21T00:03:30.597Z,92.66
2022-10-21T00:05:57.303Z,90.66
2022-10-21T00:08:24.183Z,91.43
2022-10-21T00:10:54.616Z,91.08
2022-10-21T00:13:21.772Z,90.12
2022-10-21T00:16:20.392Z,89.38
2022-10-21T00:18:47.437Z,91.13
2022-10-21T00:21:18.618Z,91.95
2022-10-21T00:23:45.451Z,91.64
2022-10-21T00:26:12.691Z,91.23
2022-10-21T00:28:39.165Z,91.24
2022-10-21T00:31:06.523Z,90.45
2022-10-21T00:33:32.937Z,90.92
2022-10-21T00:36:03.983Z,90.66
2022-10-21T00:38:31.711Z,90.63
2022-10-21T00:40:58.474Z,90.97
2022-10-21T00:43:25.520Z,89.75
2022-10-21T00:46:12.259Z,90.02
2022-10-21T00:48:41.661Z,89.01
2022-10-21T00:51:11.089Z,88.18
2022-10-21T00:53:40.095Z,87.52
2022-10-21T00:56:16.260Z,87.16
2022-10-21T00:58:43.715Z,88.67
2022-10-21T01:01:10.300Z,89.41
2022-10-21T01:03:36.819Z,88.49
2022-10-21T01:06:05.917Z,89.15
2022-10-21T01:08:32.559Z,89.35
2022-10-21T01:11:00.253Z,89.71
2022-10-21T01:13:32.815Z,89.05
2022-10-21T01:15:59.209Z,89.02
2022-10-21T01:18:39.839Z,89.95
2022-10-21T01:21:20.710Z,89.66
2022-10-21T01:24:13.520Z,89.11
2022-10-21T01:26:58.880Z,88.72
2022-10-21T01:29:44.186Z,88.71
2022-10-21T01:32:22.839Z,87.89
2022-10-21T01:34:55.298Z,88.53
2022-10-21T01:37:32.714Z,88.06
2022-10-21T01:40:05.946Z,87.13
2022-10-21T01:42:35.323Z,87.21
2022-10-21T01:45:10.522Z,86.94
2022-10-21T01:47:41.837Z,87.36
2022-10-21T01:50:11.402Z,87.72
2022-10-21T01:52:39.729Z,88.20
2022-10-21T01:55:10.085Z,87.33
2022-10-21T01:57:41.200Z,88.17
2022-10-21T02:00:08.394Z,89.07
2022-10-21T02:02:38.899Z,88.68
2022-10-21T02:05:12.806Z,89.19
2022-10-21T02:07:39.335Z,88.92
2022-10-21T02:10:06.001Z,89.51
2022-10-21T02:12:34.018Z,89.96
2022-10-21T02:15:02.637Z,89.74
2022-10-21T02:17:29.361Z,89.61
2022-10-21T02:19:58.118Z,89.65
2022-10-21T02:22:25.318Z,90.13
2022-10-21T02:25:00.837Z,90.07
2022-10-21T02:27:27.430Z,90.29
2022-10-21T02:29:57.138Z,89.26
2022-10-21T02:32:37.510Z,88.91
2022-10-21T02:35:10.383Z,89.93
2022-10-21T02:37:52.208Z,90.90
2022-10-21T02:40:22.405Z,91.51
2022-10-21T02:42:59.679Z,91.75
2022-10-21T02:45:26.581Z,92.11
2022-10-21T02:47:53.217Z,91.81
2022-10-21T02:50:19.766Z,91.77
2022-10-21T02:52:46.256Z,91.55
2022-10-21T02:55:12.738Z,91.31
2022-10-21T02:57:39.527Z,90.72
2022-10-21T03:00:06.662Z,90.99
2022-10-21T03:02:33.102Z,90.25
2022-10-21T03:04:59.575Z,90.12
2022-10-21T03:07:26.113Z,89.79
2022-10-21T03:09:52.542Z,90.99
2022-10-21T03:12:18.977Z,91.85
2022-10-21T03:14:45.411Z,91.21
2022-10-21T03:17:11.819Z,90.34
2022-10-21T03:19:38.285Z,90.94
2022-10-21T03:22:04.751Z,91.79
2022-10-21T03:24:31.137Z,90.38
2022-10-21T03:26:57.596Z,89.47
2022-10-21T03:29:24.035Z,89.26
2022-10-21T03:31:50.453Z,90.60
2022-10-21T03:34:16.986Z,90.76
2022-10-21T03:36:43.649Z,89.79
2022-10-21T03:39:10.678Z,91.31
2022-10-21T03:41:37.079Z,91.82
2022-10-21T03:44:04.009Z,92.03
2022-10-21T03:46:30.551Z,91.71
2022-10-21T03:49:01.026Z,92.28
2022-10-21T03:51:30.921Z,88.92
2022-10-21T03:53:57.350Z,89.68
2022-10-21T03:56:24.150Z,90.17
2022-10-21T03:58:52.980Z,92.02
2022-10-21T04:01:21.583Z,92.55
2022-10-21T04:03:48.067Z,92.73
2022-10-21T04:06:14.538Z,93.10
2022-10-21T04:08:41.030Z,92.86
2022-10-21T04:11:07.539Z,93.69
2022-10-21T04:13:34.054Z,93.68
2022-10-21T04:16:01.713Z,92.65
2022-10-21T04:18:28.281Z,91.54
2022-10-21T04:20:54.777Z,93.08
2022-10-21T04:23:21.306Z,94.17
2022-10-21T04:25:47.720Z,94.15
2022-10-21T04:28:14.226Z,94.15
2022-10-21T04:30:40.675Z,93.72
2022-10-21T04:33:07.209Z,93.58
2022-10-21T04:35:33.625Z,92.62
2022-10-21T04:38:00.549Z,92.92
2022-10-21T04:40:27.193Z,93.45
2022-10-21T04:42:53.650Z,93.85
2022-10-21T04:45:20.104Z,94.03
2022-10-21T04:47:46.613Z,93.67
2022-10-21T04:50:13.125Z,93.33
2022-10-21T04:52:39.815Z,92.96
2022-10-21T04:55:06.694Z,91.90
2022-10-21T04:57:33.161Z,92.00
2022-10-21T04:59:59.601Z,92.10
2022-10-21T05:02:26.083Z,92.78
2022-10-21T05:04:52.506Z,92.28
2022-10-21T05:07:18.967Z,90.73
2022-10-21T05:09:45.386Z,90.82
2022-10-21T05:12:11.818Z,90.61
2022-10-21T05:14:38.238Z,90.81
2022-10-21T05:17:04.723Z,90.18
2022-10-21T05:19:31.578Z,90.58
2022-10-21T05:21:58.170Z,91.22
2022-10-21T05:24:24.683Z,90.67
2022-10-21T05:26:52.174Z,90.01
2022-10-21T05:29:18.671Z,89.28
2022-10-21T05:31:45.161Z,89.70
2022-10-21T05:34:11.594Z,90.46
2022-10-21T05:36:37.995Z,91.29
2022-10-21T05:39:04.557Z,90.00
2022-10-21T05:41:30.981Z,90.65
2022-10-21T05:43:57.486Z,91.19
2022-10-21T05:46:23.954Z,90.00
2022-10-21T05:48:50.369Z,89.01
2022-10-21T05:51:18.122Z,88.79
2022-10-21T05:53:44.584Z,88.92
2022-10-21T05:56:11.226Z,89.13
2022-10-21T05:58:37.627Z,88.71
2022-10-21T06:01:04.174Z,90.20
2022-10-21T06:03:32.057Z,89.66
2022-10-21T06:05:59.725Z,91.24
2022-10-21T06:08:26.807Z,91.07
2022-10-21T06:10:59.946Z,90.30
2022-10-21T06:13:26.386Z,91.42
2022-10-21T06:15:52.903Z,91.61
2022-10-21T06:18:19.403Z,91.23
2022-10-21T06:20:45.882Z,90.87
2022-10-21T06:23:12.940Z,89.42
2022-10-21T06:25:39.349Z,89.34
2022-10-21T06:28:05.833Z,90.78
2022-10-21T06:30:32.346Z,91.34
2022-10-21T06:32:58.770Z,91.99
2022-10-21T06:35:25.208Z,92.18
2022-10-21T06:37:51.647Z,91.84
2022-10-21T06:40:18.114Z,91.84
2022-10-21T06:42:44.539Z,92.40
2022-10-21T06:45:11.048Z,92.09
2022-10-21T06:47:37.922Z,92.06
2022-10-21T06:50:04.821Z,91.56
2022-10-21T06:52:31.490Z,93.56
2022-10-21T06:54:58.126Z,93.07
2022-10-21T06:57:24.601Z,91.83
2022-10-21T06:59:51.004Z,90.06
2022-10-21T07:02:17.480Z,89.66
2022-10-21T07:04:45.354Z,89.59
2022-10-21T07:07:12.761Z,90.69
2022-10-21T07:09:39.291Z,91.21
2022-10-21T07:12:06.095Z,92.05
2022-10-21T07:14:32.597Z,91.38
2022-10-21T07:16:59.071Z,91.65
2022-10-21T07:19:25.782Z,91.17
2022-10-21T07:21:52.213Z,90.96
2022-10-21T07:24:22.308Z,90.29
2022-10-21T07:26:49.630Z,92.19
2022-10-21T07:29:16.170Z,92.10
2022-10-21T07:31:42.697Z,91.46
2022-10-21T07:34:10.851Z,91.15
2022-10-21T07:36:38.885Z,91.93
2022-10-21T07:39:07.112Z,91.31
2022-10-21T07:41:35.215Z,91.11
2022-10-21T07:44:02.336Z,89.56
2022-10-21T07:46:28.774Z,89.59
2022-10-21T07:48:55.722Z,89.62
2022-10-21T07:51:27.001Z,87.37
2022-10-21T07:53:56.278Z,87.55
2022-10-21T07:56:33.146Z,88.91
2022-10-21T07:58:59.819Z,90.53
2022-10-21T08:01:26.468Z,91.38
2022-10-21T08:03:53.747Z,90.60
2022-10-21T08:06:20.467Z,90.02
2022-10-21T08:08:47.246Z,89.05
2022-10-21T08:11:21.124Z,87.67
2022-10-21T08:13:47.578Z,86.14
2022-10-21T08:16:14.042Z,85.93
2022-10-21T08:18:40.497Z,86.15
2022-10-21T08:21:07.026Z,86.78
2022-10-21T08:23:33.470Z,88.56
2022-10-21T08:26:00.880Z,88.20
2022-10-21T08:28:29.162Z,86.49
2022-10-21T08:31:09.052Z,86.29
2022-10-21T08:33:36.202Z,86.50
2022-10-21T08:36:06.620Z,85.70
2022-10-21T08:38:33.190Z,84.81
2022-10-21T08:40:59.941Z,84.22
2022-10-21T08:43:31.431Z,84.61
2022-10-21T08:46:00.254Z,83.56
2022-10-21T08:48:30.641Z,83.92
2022-10-21T08:50:57.637Z,84.70
2022-10-21T08:53:27.003Z,85.27
2022-10-21T08:55:58.406Z,83.23
2022-10-21T08:58:24.903Z,82.90
2022-10-21T09:00:54.667Z,83.43
2022-10-21T09:03:30.110Z,84.51
2022-10-21T09:06:14.802Z,83.40
2022-10-21T09:08:52.570Z,81.06
2022-10-21T09:11:30.414Z,82.48
2022-10-21T09:14:06.762Z,81.67
2022-10-21T09:16:41.562Z,79.79
2022-10-21T09:19:20.109Z,77.13
2022-10-21T09:21:49.619Z,75.20
2022-10-21T09:24:20.164Z,75.63
2022-10-21T09:26:50.503Z,73.91
2022-10-21T09:29:20.805Z,74.92
2022-10-21T09:31:54.384Z,74.69
2022-10-21T09:34:32.029Z,72.56
2022-10-21T09:36:59.653Z,70.73
2022-10-21T09:39:37.074Z,70.75
2022-10-21T09:42:07.359Z,71.67
2022-10-21T09:44:45.466Z,67.08
2022-10-21T09:47:19.948Z,67.37
2022-10-21T09:50:06.460Z,66.49
2022-10-21T09:52:36.233Z,66.35
2022-10-21T09:55:03.213Z,69.06
2022-10-21T09:57:32.562Z,68.63
2022-10-21T09:59:59.984Z,68.49
2022-10-21T10:02:37.292Z,66.24
2022-10-21T10:05:23.894Z,67.82
2022-10-21T10:07:50.408Z,69.40
2022-10-21T10:10:33.009Z,70.90
2022-10-21T10:12:59.939Z,70.55
2022-10-21T10:15:33.593Z,71.24
2022-10-21T10:18:00.603Z,70.21
2022-10-21T10:20:27.428Z,69.75
2022-10-21T10:22:59.748Z,71.18
2022-10-21T10:25:30.806Z,72.51
2022-10-21T10:27:59.259Z,71.85
2022-10-21T10:30:27.301Z,72.58
2022-10-21T10:32:54.903Z,72.35
2022-10-21T10:35:23.583Z,73.58
2022-10-21T10:37:50.348Z,72.12
2022-10-21T10:40:20.963Z,70.51
2022-10-21T10:42:47.469Z,69.74
2022-10-21T10:45:13.888Z,69.73
2022-10-21T10:47:53.791Z,70.40
2022-10-21T10:50:39.259Z,71.62
2022-10-21T10:53:21.171Z,72.06
2022-10-21T10:58:25.459Z,71.96
2022-10-21T11:00:57.200Z,70.45
2022-10-21T11:03:28.101Z,72.06
2022-10-21T11:05:57.825Z,71.14
2022-10-21T11:08:29.713Z,72.00
2022-10-21T11:11:13.218Z,74.36
2022-10-21T11:13:42.327Z,72.69
2022-10-21T11:16:24.148Z,72.21
2022-10-21T11:19:04.242Z,70.70
2022-10-21T11:21:45.029Z,67.67
2022-10-21T11:24:14.753Z,70.85
2022-10-21T11:26:47.276Z,70.02
2022-10-21T11:29:26.526Z,69.64
2022-10-21T11:32:10.301Z,71.64
2022-10-21T11:34:43.408Z,71.32
2022-10-21T11:37:12.928Z,72.44
2022-10-21T11:39:57.837Z,72.73
2022-10-21T11:42:40.869Z,70.70
2022-10-21T11:45:25.999Z,71.89
2022-10-21T11:47:59.211Z,72.03
2022-10-21T11:50:25.646Z,72.01
2022-10-21T11:52:52.163Z,70.11
2022-10-21T11:55:31.914Z,71.68
2022-10-21T11:58:02.394Z,70.64
2022-10-21T12:00:33.065Z,72.26
2022-10-21T12:02:59.450Z,70.13
2022-10-21T12:05:34.682Z,69.38
2022-10-21T12:08:22.479Z,69.39
2022-10-21T12:10:59.189Z,69.51
2022-10-21T12:13:31.002Z,68.78
2022-10-21T12:16:02.317Z,71.94
2022-10-21T12:18:29.672Z,72.43
2022-10-21T12:20:56.865Z,72.91
2022-10-21T12:23:29.079Z,70.76
2022-10-21T12:26:01.439Z,69.33
2022-10-21T12:28:34.041Z,71.75
2022-10-21T12:31:00.441Z,68.40
2022-10-21T12:33:35.913Z,69.94
2022-10-21T12:36:19.714Z,69.01
2022-10-21T12:38:46.114Z,73.00
2022-10-21T12:41:26.569Z,73.84
2022-10-21T12:43:52.980Z,73.96
2022-10-21T12:46:23.667Z,73.59
2022-10-21T12:48:50.187Z,72.82
2022-10-21T12:51:19.595Z,71.95
2022-10-21T12:54:05.706Z,72.30
2022-10-21T12:56:35.225Z,70.73
2022-10-21T12:59:04.548Z,72.20
2022-10-21T13:01:37.572Z,70.74
2022-10-21T13:04:04.850Z,73.27
2022-10-21T13:06:53.390Z,73.82
2022-10-21T13:09:34.082Z,74.25
2022-10-21T13:12:23.967Z,74.82
2022-10-21T13:14:55.766Z,73.76
2022-10-21T13:17:22.166Z,74.28
2022-10-21T13:19:49.774Z,74.08
2022-10-21T13:22:35.073Z,74.60
2022-10-21T13:25:22.281Z,75.71
2022-10-21T13:27:53.578Z,74.29
2022-10-21T13:30:38.844Z,74.60
2022-10-21T13:33:06.868Z,74.51
2022-10-21T13:35:42.721Z,74.65
2022-10-21T13:38:23.384Z,74.70
2022-10-21T13:40:54.683Z,75.14
2022-10-21T13:43:35.645Z,74.48
2022-10-21T13:46:14.102Z,75.05
2022-10-21T13:48:47.586Z,75.20
2022-10-21T13:51:18.150Z,75.48
2022-10-21T13:53:45.916Z,74.92
2022-10-21T13:56:20.204Z,75.20
2022-10-21T13:58:47.450Z,75.91
2022-10-21T14:01:16.751Z,75.30
2022-10-21T14:03:44.001Z,76.32
2022-10-21T14:06:12.421Z,76.94
2022-10-21T14:08:40.957Z,74.77
2022-10-21T14:11:15.609Z,74.64
2022-10-21T14:13:42.265Z,75.49
2022-10-21T14:16:09.357Z,73.79
2022-10-21T14:18:42.334Z,70.58
2022-10-21T14:21:16.034Z,73.68
2022-10-21T14:23:44.296Z,74.06
2022-10-21T14:26:10.869Z,73.58
2022-10-21T14:28:37.975Z,72.63
2022-10-21T14:31:09.207Z,73.61
2022-10-21T14:33:39.392Z,74.75
2022-10-21T14:36:20.514Z,74.13
2022-10-21T14:38:50.148Z,74.11
2022-10-21T14:41:19.710Z,75.00
2022-10-21T14:43:47.803Z,73.84
2022-10-21T14:46:14.332Z,75.27
2022-10-21T14:48:46.026Z,76.26
2022-10-21T14:51:17.646Z,75.08
2022-10-21T14:53:51.079Z,75.64
2022-10-21T14:56:19.781Z,72.93
2022-10-21T14:58:51.647Z,75.42
2022-10-21T15:01:19.102Z,75.96
2022-10-21T15:03:45.540Z,76.10
2022-10-21T15:06:19.357Z,76.76
2022-10-21T15:08:58.741Z,77.78
2022-10-21T15:11:25.211Z,77.57
2022-10-21T15:13:55.940Z,78.02
2022-10-21T15:16:24.710Z,78.09
2022-10-21T15:18:53.882Z,79.40
2022-10-21T15:21:38.150Z,79.05
2022-10-21T15:24:05.487Z,79.34
2022-10-21T15:26:37.101Z,79.94
2022-10-21T15:29:32.605Z,80.05
2022-10-21T15:32:00.137Z,79.91
2022-10-21T15:34:26.653Z,80.61
2022-10-21T15:36:53.130Z,80.27
2022-10-21T15:39:19.684Z,80.63
2022-10-21T15:41:48.706Z,80.73
2022-10-21T15:44:23.062Z,82.04
2022-10-21T15:46:50.414Z,84.11
2022-10-21T15:49:19.413Z,84.58
2022-10-21T15:51:46.591Z,84.72
2022-10-21T15:54:13.288Z,84.71
2022-10-21T15:56:39.835Z,85.36
2022-10-21T15:59:06.259Z,85.28
2022-10-21T16:01:32.772Z,87.21
2022-10-21T16:03:59.343Z,87.03
2022-10-21T16:06:25.941Z,87.68
2022-10-21T16:08:53.035Z,87.53
2022-10-21T16:11:29.656Z,87.19
2022-10-21T16:14:07.711Z,87.15
2022-10-21T16:16:34.157Z,84.91
2022-10-21T16:19:00.589Z,86.24
2022-10-21T16:21:27.063Z,86.86
2022-10-21T16:23:55.735Z,87.55
2022-10-21T16:26:22.395Z,88.52
2022-10-21T16:28:49.770Z,89.27
2022-10-21T16:31:16.247Z,88.76
2022-10-21T16:33:42.702Z,88.92
2022-10-21T16:36:16.924Z,89.67
2022-10-21T16:38:44.492Z,89.14
2022-10-21T16:41:12.142Z,91.27
2022-10-21T16:43:38.650Z,91.89
2022-10-21T16:46:05.221Z,90.98
2022-10-21T16:48:31.710Z,92.95
2022-10-21T16:50:58.312Z,93.02
2022-10-21T16:53:28.877Z,91.45
2022-10-21T16:55:55.333Z,92.08
2022-10-21T16:58:21.774Z,91.59
2022-10-21T17:00:48.730Z,91.74
2022-10-21T17:03:15.214Z,91.24
2022-10-21T17:05:41.692Z,91.14
2022-10-21T17:08:08.093Z,91.72
2022-10-21T17:10:34.518Z,91.09
2022-10-21T17:13:01.541Z,90.79
2022-10-21T17:15:28.223Z,91.22
2022-10-21T17:17:54.766Z,90.83
2022-10-21T17:20:21.275Z,90.76
2022-10-21T17:22:47.727Z,90.42
2022-10-21T17:25:14.195Z,89.90
2022-10-21T17:27:41.078Z,90.47
2022-10-21T17:30:08.022Z,90.35
2022-10-21T17:32:34.856Z,90.09
2022-10-21T17:35:01.305Z,90.15
2022-10-21T17:37:27.732Z,90.29
2022-10-21T17:39:54.167Z,89.74
2022-10-21T17:42:20.811Z,89.93
2022-10-21T17:44:47.336Z,90.71
2022-10-21T17:47:14.906Z,90.73
2022-10-21T17:49:44.537Z,90.83
2022-10-21T17:52:10.990Z,91.28
2022-10-21T17:54:37.415Z,91.09
2022-10-21T17:57:03.934Z,91.34
2022-10-21T17:59:32.689Z,92.10
2022-10-21T18:01:59.522Z,91.64
2022-10-21T18:04:25.947Z,92.59
2022-10-21T18:06:52.390Z,92.45
2022-10-21T18:09:19.028Z,91.97
2022-10-21T18:11:45.627Z,92.42
2022-10-21T18:14:12.054Z,93.50
2022-10-21T18:16:38.546Z,94.38
2022-10-21T18:19:04.949Z,94.38
2022-10-21T18:21:31.429Z,94.49
2022-10-21T18:23:57.894Z,95.10
2022-10-21T18:26:26.726Z,95.15
2022-10-21T18:28:54.429Z,95.87
2022-10-21T18:31:24.059Z,96.87
2022-10-21T18:33:53.310Z,96.03
2022-10-21T18:36:19.741Z,96.06
2022-10-21T18:38:46.196Z,95.52
2022-10-21T18:41:20.663Z,95.45
2022-10-21T18:43:51.668Z,95.33
2022-10-21T18:46:18.650Z,95.12
2022-10-21T18:48:45.173Z,93.77
2022-10-21T18:51:12.933Z,94.23
2022-10-21T18:53:39.628Z,94.65
2022-10-21T18:56:06.885Z,94.79
2022-10-21T18:58:34.129Z,95.75
2022-10-21T19:01:00.919Z,95.61
2022-10-21T19:03:27.813Z,95.47
2022-10-21T19:05:54.591Z,95.61
2022-10-21T19:08:21.575Z,95.68
2022-10-21T19:10:48.141Z,95.92
2022-10-21T19:13:14.585Z,96.09
2022-10-21T19:15:41.411Z,96.02
2022-10-21T19:18:11.246Z,95.85
2022-10-21T19:20:37.675Z,96.35
2022-10-21T19:23:04.092Z,95.73
2022-10-21T19:25:30.554Z,96.51
2022-10-21T19:27:56.987Z,97.40
2022-10-21T19:30:23.422Z,98.64
2022-10-21T19:32:49.870Z,97.80
2022-10-21T19:35:16.403Z,98.33
2022-10-21T19:37:42.834Z,98.17
2022-10-21T19:40:09.503Z,98.40
2022-10-21T19:42:36.820Z,97.82
2022-10-21T19:45:03.652Z,97.42
2022-10-21T19:47:31.190Z,97.73
2022-10-21T19:49:57.741Z,97.79
2022-10-21T19:52:24.247Z,97.84
2022-10-21T19:54:52.327Z,97.52
2022-10-21T19:57:18.801Z,97.15
2022-10-21T19:59:45.245Z,97.21
2022-10-21T20:02:11.643Z,97.69
2022-10-21T20:04:38.069Z,97.62
2022-10-21T20:07:04.547Z,97.21
2022-10-21T20:09:32.811Z,97.82
2022-10-21T20:12:01.571Z,98.08
2022-10-21T20:14:28.025Z,98.50
2022-10-21T20:16:54.539Z,97.95
2022-10-21T20:19:21.030Z,97.64
2022-10-21T20:21:49.116Z,97.87
2022-10-21T20:24:16.304Z,98.40
2022-10-21T20:26:44.344Z,97.89
2022-10-21T20:29:11.225Z,99.33
2022-10-21T20:31:37.706Z,99.02
2022-10-21T20:34:04.176Z,98.67
2022-10-21T20:36:34.657Z,99.97
2022-10-21T20:39:02.925Z,100.00
2022-10-21T20:41:33.996Z,99.79
2022-10-21T20:44:01.040Z,99.35
2022-10-21T20:46:28.032Z,99.45
2022-10-21T20:48:54.856Z,99.31
2022-10-21T20:51:26.201Z,99.44
2022-10-21T20:53:57.289Z,98.98
2022-10-21T20:56:28.015Z,98.23
2022-10-21T20:58:54.483Z,98.20
2022-10-21T21:01:28.356Z,98.20
2022-10-21T21:03:56.162Z,98.56
2022-10-21T21:06:23.034Z,98.76
2022-10-21T21:09:08.620Z,99.38
2022-10-21T21:11:35.923Z,99.52
2022-10-21T21:14:02.551Z,99.70
2022-10-21T21:16:28.984Z,99.62
2022-10-21T21:18:57.301Z,99.02
2022-10-21T21:21:24.737Z,99.63
2022-10-21T21:23:51.335Z,99.84
2022-10-21T21:26:22.166Z,99.64
2022-10-21T21:28:50.799Z,99.35
2022-10-21T21:31:17.994Z,99.31
2022-10-21T21:33:45.335Z,99.63
2022-10-21T21:36:12.582Z,99.71
2022-10-21T21:38:39.172Z,99.43
2022-10-21T21:41:08.197Z,100.00
2022-10-21T21:43:37.453Z,99.12
2022-10-21T21:46:04.519Z,98.81
2022-10-21T21:48:31.934Z,100.00
2022-10-21T21:51:02.473Z,100.00
2022-10-21T21:53:29.110Z,99.24
2022-10-21T21:55:57.716Z,99.20
2022-10-21T21:58:27.385Z,99.47
2022-10-21T22:00:53.817Z,99.16
2022-10-21T22:03:21.613Z,98.84
2022-10-21T22:05:48.157Z,99.05
2022-10-21T22:08:14.596Z,99.53
2022-10-21T22:10:41.058Z,99.29
2022-10-21T22:13:07.790Z,99.65
2022-10-21T22:15:50.051Z,99.50
2022-10-21T22:18:16.530Z,99.68
2022-10-21T22:20:42.972Z,99.73
2022-10-21T22:23:09.375Z,100.00
2022-10-21T22:25:35.779Z,100.00
2022-10-21T22:28:02.205Z,100.00
2022-10-21T22:30:28.743Z,100.00
2022-10-21T22:32:55.148Z,100.00
2022-10-21T22:35:21.561Z,100.00
2022-10-21T22:37:48.015Z,100.00
2022-10-21T22:40:14.446Z,100.00
2022-10-21T22:42:40.946Z,100.00
2022-10-21T22:45:07.678Z,100.00
2022-10-21T22:47:34.067Z,100.00
2022-10-21T22:50:00.503Z,100.00
2022-10-21T22:52:26.950Z,100.00
2022-10-21T22:54:53.420Z,100.00
2022-10-21T22:57:19.892Z,100.00
2022-10-21T22:59:50.613Z,100.00
2022-10-21T23:02:19.875Z,99.97
2022-10-21T23:04:46.301Z,99.93
2022-10-21T23:07:12.977Z,100.00
2022-10-21T23:09:39.422Z,99.86
2022-10-21T23:12:05.938Z,98.64
2022-10-21T23:14:32.398Z,100.00
2022-10-21T23:16:58.842Z,100.00
2022-10-21T23:19:25.334Z,100.00
2022-10-21T23:21:51.717Z,100.00
2022-10-21T23:24:18.234Z,100.00
2022-10-21T23:26:44.662Z,99.23
2022-10-21T23:29:11.150Z,99.38
2022-10-21T23:31:37.578Z,99.13
2022-10-21T23:34:05.859Z,97.96
2022-10-21T23:36:33.130Z,99.42
2022-10-21T23:38:59.551Z,99.90
2022-10-21T23:41:25.977Z,99.94
2022-10-21T23:43:52.509Z,100.00
2022-10-21T23:46:19.125Z,100.00
2022-10-21T23:48:45.617Z,100.00
2022-10-21T23:51:12.135Z,100.00
2022-10-21T23:53:38.531Z,99.29
2022-10-21T23:56:05.153Z,99.27
2022-10-21T23:58:31.875Z,100.00
